Time;durP1;ratioP1;P1;durP2;ratioP2;P2;SDS_P1;SDS_P2;PMS_P1;PMS_P2;Temp;Humidity;BMP_temperature;BMP_pressure;BME280_temperature;BME280_humidity;BME280_pressure;Samples;Min_cycle;Max_cycle;Signal;HPM_P1;HPM_P2
2023/03/20 00:01:29;;;;;;;4.00;2.65;;;;;;;10.33;100.00;100746.09;5083381;29;20067;-69
2023/03/20 00:03:59;;;;;;;4.97;2.97;;;;;;;10.29;100.00;100755.78;5069083;29;20035;-71
2023/03/20 00:06:30;;;;;;;4.65;2.67;;;;;;;10.34;100.00;100764.31;5067793;29;20048;-74
2023/03/20 00:09:01;;;;;;;4.60;2.78;;;;;;;10.22;100.00;100766.47;5073080;29;20080;-73
2023/03/20 00:11:35;;;;;;;3.92;2.55;;;;;;;10.15;100.00;100771.03;5085420;29;20032;-74
2023/03/20 00:14:08;;;;;;;3.33;2.60;;;;;;;10.14;100.00;100774.53;5057238;29;20509;-72
2023/03/20 00:16:42;;;;;;;4.10;2.38;;;;;;;10.10;100.00;100777.28;5080500;29;20024;-72
2023/03/20 00:19:18;;;;;;;3.75;2.33;;;;;;;10.12;100.00;100775.47;5058396;29;20422;-76
2023/03/20 00:21:50;;;;;;;4.45;2.40;;;;;;;10.16;100.00;100771.88;5075023;29;20025;-74
2023/03/20 00:24:21;;;;;;;3.58;2.42;;;;;;;10.17;100.00;100776.22;5071866;29;20243;-74
2023/03/20 00:26:52;;;;;;;5.22;2.50;;;;;;;10.16;100.00;100771.88;5070541;29;20043;-72
2023/03/20 00:29:29;;;;;;;6.60;2.60;;;;;;;10.10;100.00;100766.81;5042334;29;20087;-75
2023/03/20 00:32:00;;;;;;;3.65;2.55;;;;;;;10.18;100.00;100770.06;5098232;29;20020;-75
2023/03/20 00:34:31;;;;;;;5.35;2.60;;;;;;;10.25;100.00;100758.53;5097453;29;20398;-72
2023/03/20 00:37:01;;;;;;;6.30;2.80;;;;;;;10.17;100.00;100758.75;5100963;29;20319;-72
2023/03/20 00:39:33;;;;;;;3.58;2.63;;;;;;;10.12;100.00;100760.66;5098843;29;20035;-71
2023/03/20 00:42:06;;;;;;;3.80;2.70;;;;;;;10.09;100.00;100755.53;5096675;29;20036;-72
2023/03/20 00:44:47;;;;;;;3.60;2.38;;;;;;;10.13;100.00;100756.31;5101376;29;20059;-72
2023/03/20 00:47:20;;;;;;;6.53;2.85;;;;;;;10.15;100.00;100749.28;5106623;29;20891;-72
2023/03/20 00:49:53;;;;;;;5.72;2.50;;;;;;;10.09;100.00;100746.84;5106451;29;20490;-75
2023/03/20 00:52:23;;;;;;;3.03;2.30;;;;;;;10.11;100.00;100753.75;5109510;29;20106;-75
2023/03/20 00:54:54;;;;;;;5.30;2.70;;;;;;;10.15;100.00;100757.13;5099652;29;20103;-74
2023/03/20 00:57:39;;;;;;;5.75;3.47;;;;;;;10.09;100.00;100758.16;5104529;29;20035;-74
2023/03/20 01:00:29;;;;;;;5.82;3.28;;;;;;;10.11;100.00;100753.75;5096286;29;20111;-75
2023/03/20 01:03:02;;;;;;;5.45;3.58;;;;;;;10.20;100.00;100758.66;5099167;29;20051;-75
2023/03/20 01:05:33;;;;;;;7.20;3.38;;;;;;;10.27;100.00;100765.41;5096506;29;20045;-76
2023/03/20 01:08:21;;;;;;;6.45;4.03;;;;;;;10.21;100.00;100756.91;5090895;29;20031;-76
2023/03/20 01:10:54;;;;;;;5.05;3.35;;;;;;;10.34;100.00;100756.47;5089396;29;20031;-72
2023/03/20 01:13:27;;;;;;;5.70;3.70;;;;;;;10.48;100.00;100766.50;5097494;29;20032;-71
2023/03/20 01:15:58;;;;;;;7.00;3.97;;;;;;;10.37;100.00;100769.44;5098640;29;20972;-72
2023/03/20 01:18:28;;;;;;;5.53;3.75;;;;;;;10.42;100.00;100769.28;5107266;29;20133;-71
2023/03/20 01:20:59;;;;;;;8.02;4.28;;;;;;;10.45;100.00;100772.69;5100887;29;20043;-72
2023/03/20 01:23:29;;;;;;;7.43;4.28;;;;;;;10.45;100.00;100769.19;5103016;29;20027;-73
2023/03/20 01:25:59;;;;;;;8.43;3.90;;;;;;;10.52;100.00;100770.72;5108057;29;20402;-73
2023/03/20 01:28:30;;;;;;;7.13;4.32;;;;;;;10.49;100.00;100761.22;5098675;29;20024;-72
2023/03/20 01:31:00;;;;;;;8.18;4.18;;;;;;;10.47;100.00;100764.78;5119292;23;20047;-71
2023/03/20 01:33:31;;;;;;;8.32;4.47;;;;;;;10.50;100.00;100769.94;5119819;29;20110;-71
2023/03/20 01:36:01;;;;;;;8.73;4.60;;;;;;;10.56;100.00;100761.88;5104064;29;20493;-72
2023/03/20 01:38:31;;;;;;;11.13;4.53;;;;;;;10.59;100.00;100757.41;5103137;29;20114;-71
2023/03/20 01:41:12;;;;;;;10.85;5.28;;;;;;;10.55;100.00;100765.41;5104813;29;20059;-72
2023/03/20 01:43:44;;;;;;;9.27;5.60;;;;;;;10.60;100.00;100769.56;5114935;29;20023;-71
2023/03/20 01:46:25;;;;;;;12.68;5.72;;;;;;;10.56;100.00;100774.94;5111501;29;20023;-72
2023/03/20 01:52:22;;;;;;;13.70;7.05;;;;;;;10.45;100.00;100771.81;5094135;29;20163;-72
2023/03/20 01:54:52;;;;;;;13.73;7.65;;;;;;;10.60;100.00;100773.94;5102569;29;20445;-72
2023/03/20 01:57:24;;;;;;;14.93;8.27;;;;;;;10.58;100.00;100776.63;5103274;29;20119;-73
2023/03/20 02:00:02;;;;;;;17.75;9.30;;;;;;;10.61;100.00;100768.66;5106877;29;20110;-71
2023/03/20 02:02:32;;;;;;;18.58;9.30;;;;;;;10.56;100.00;100778.44;5109159;29;20043;-72
2023/03/20 02:05:07;;;;;;;21.33;10.13;;;;;;;10.57;100.00;100780.13;5103481;29;20028;-72
2023/03/20 02:07:38;;;;;;;27.38;12.23;;;;;;;10.60;100.00;100789.63;5104679;29;20058;-72
2023/03/20 02:10:12;;;;;;;25.40;11.70;;;;;;;10.73;100.00;100790.94;5110512;29;20437;-72
2023/03/20 02:12:44;;;;;;;27.23;13.07;;;;;;;10.72;100.00;100789.22;5103409;29;20028;-71
2023/03/20 02:15:16;;;;;;;24.10;12.10;;;;;;;10.63;100.00;100789.50;5104261;29;20051;-72
2023/03/20 02:17:46;;;;;;;25.02;12.75;;;;;;;10.65;100.00;100800.78;5106040;29;20027;-71
2023/03/20 02:20:29;;;;;;;25.90;14.10;;;;;;;10.60;100.00;100805.28;5109470;29;20370;-72
2023/03/20 02:23:54;;;;;;;32.88;14.70;;;;;;;10.54;100.00;100802.88;5102604;29;20040;-71
2023/03/20 02:26:45;;;;;;;31.88;15.00;;;;;;;10.49;100.00;100810.88;5101980;29;20050;-72
2023/03/20 02:29:34;;;;;;;30.42;14.57;;;;;;;10.44;100.00;100814.50;5103448;29;20037;-72
2023/03/20 02:32:19;;;;;;;25.88;13.43;;;;;;;10.19;100.00;100824.84;5103425;29;20190;-72
2023/03/20 02:34:50;;;;;;;27.60;13.70;;;;;;;10.17;100.00;100828.44;5102939;29;20494;-72
2023/03/20 02:37:35;;;;;;;29.25;13.88;;;;;;;10.12;100.00;100825.09;5093480;28;20047;-72
2023/03/20 02:40:24;;;;;;;28.52;13.82;;;;;;;10.07;100.00;100834.81;5102640;29;20023;-71
2023/03/20 02:43:10;;;;;;;30.77;14.57;;;;;;;10.09;100.00;100835.63;5101566;29;20411;-71
2023/03/20 02:46:05;;;;;;;28.23;13.18;;;;;;;10.01;100.00;100848.03;5116073;29;20023;-71
2023/03/20 02:48:41;;;;;;;37.42;15.48;;;;;;;9.90;100.00;100848.34;5083884;29;20087;-71
2023/03/20 02:51:23;;;;;;;31.80;13.55;;;;;;;9.96;100.00;100852.53;5113386;29;20536;-72
2023/03/20 02:54:06;;;;;;;35.22;15.30;;;;;;;10.03;100.00;100848.88;5122721;29;20082;-72
2023/03/20 02:56:58;;;;;;;32.45;14.50;;;;;;;9.94;100.00;100841.25;5110559;29;20031;-72
2023/03/20 02:59:40;;;;;;;38.13;15.52;;;;;;;10.07;100.00;100855.72;5102735;29;20527;-71
2023/03/20 03:02:19;;;;;;;34.25;14.27;;;;;;;10.10;100.00;100847.78;5105228;29;20031;-71
2023/03/20 03:05:01;;;;;;;32.72;14.23;;;;;;;10.08;100.00;100849.59;5119897;29;20504;-72
2023/03/20 03:07:34;;;;;;;35.80;14.43;;;;;;;10.02;100.00;100847.16;5117210;29;20047;-71
2023/03/20 03:10:45;;;;;;;33.45;15.23;;;;;;;10.10;100.00;100847.78;5103683;29;20654;-72
2023/03/20 03:13:20;;;;;;;36.10;14.80;;;;;;;10.15;100.00;100849.38;5102021;29;20036;-72
2023/03/20 03:15:52;;;;;;;;;;;;;;;10.13;100.00;100858.16;5115098;29;20037;-73
2023/03/20 03:18:25;;;;;;;32.25;14.35;;;;;;;10.10;100.00;100855.63;5085178;29;20008;-72
2023/03/20 03:20:59;;;;;;;40.58;15.38;;;;;;;10.12;100.00;100853.81;5102036;29;20035;-72
2023/03/20 03:23:48;;;;;;;42.03;15.10;;;;;;;10.04;100.00;100859.28;5105604;29;20467;-72
2023/03/20 03:26:25;;;;;;;35.53;15.73;;;;;;;10.09;100.00;100856.50;5107090;29;20478;-72
2023/03/20 03:29:00;;;;;;;39.80;16.10;;;;;;;10.01;100.00;100850.66;5106547;29;20038;-72
2023/03/20 03:31:31;;;;;;;37.72;14.95;;;;;;;9.99;100.00;100865.50;5106106;29;20031;-72
2023/03/20 03:34:02;;;;;;;40.65;15.82;;;;;;;9.98;100.00;100861.19;5087026;29;20197;-72
2023/03/20 03:36:43;;;;;;;46.30;16.58;;;;;;;9.95;100.00;100856.03;5095148;29;20032;-72
2023/03/20 03:39:33;;;;;;;44.25;15.57;;;;;;;9.97;100.00;100855.09;5106468;29;20024;-72
2023/03/20 03:42:16;;;;;;;45.17;17.45;;;;;;;9.93;100.00;100857.81;5106485;29;20389;-72
2023/03/20 03:45:13;;;;;;;42.40;16.50;;;;;;;9.93;100.00;100855.22;5111879;29;20027;-72
2023/03/20 03:47:49;;;;;;;46.08;18.30;;;;;;;9.89;100.00;100858.81;5115714;29;20074;-72
2023/03/20 03:50:23;;;;;;;49.75;18.35;;;;;;;9.97;100.00;100855.09;5113014;29;20022;-71
2023/03/20 03:52:58;;;;;;;56.50;18.30;;;;;;;9.90;100.00;100856.19;5111153;29;20039;-72
2023/03/20 03:55:35;;;;;;;52.60;19.13;;;;;;;9.93;100.00;100866.53;5104948;29;20092;-72
2023/03/20 03:58:11;;;;;;;48.05;17.92;;;;;;;9.89;100.00;100864.03;5105961;29;20027;-71
2023/03/20 04:00:46;;;;;;;51.97;19.02;;;;;;;9.92;100.00;100862.19;5106504;29;20027;-71
2023/03/20 04:03:22;;;;;;;53.03;19.02;;;;;;;9.92;100.00;100861.34;5105129;29;20036;-72
2023/03/20 04:05:55;;;;;;;46.25;17.35;;;;;;;9.96;100.00;100848.16;5098424;29;20039;-72
2023/03/20 04:08:26;;;;;;;40.33;16.55;;;;;;;9.95;100.00;100853.41;5105880;29;20024;-72
2023/03/20 04:10:56;;;;;;;46.25;17.17;;;;;;;9.89;100.00;100856.22;5111098;29;20098;-72
2023/03/20 04:13:26;;;;;;;40.10;15.73;;;;;;;10.02;100.00;100847.16;5112815;29;20079;-71
2023/03/20 04:15:57;;;;;;;41.00;16.30;;;;;;;10.01;100.00;100848.91;5108642;29;20106;-71
2023/03/20 04:18:27;;;;;;;43.63;15.80;;;;;;;9.98;100.00;100840.28;5103842;29;20042;-71
2023/03/20 04:20:57;;;;;;;39.92;15.52;;;;;;;10.01;100.00;100846.28;5104699;29;20028;-71
2023/03/20 04:23:28;;;;;;;42.03;15.45;;;;;;;9.88;100.00;100849.28;5103703;29;20095;-71
2023/03/20 04:25:58;;;;;;;42.50;15.30;;;;;;;9.92;100.00;100846.53;5117899;29;20069;-72
2023/03/20 04:28:29;;;;;;;40.55;14.93;;;;;;;9.71;100.00;100847.16;5104385;29;20355;-71
2023/03/20 04:31:00;;;;;;;40.75;15.30;;;;;;;9.67;100.00;100860.31;5111460;29;20043;-71
2023/03/20 04:33:30;;;;;;;39.53;14.90;;;;;;;9.69;100.00;100859.34;5103379;29;20131;-71
2023/03/20 04:36:01;;;;;;;40.45;15.18;;;;;;;9.61;100.00;100850.03;5116273;29;20122;-71
2023/03/20 04:38:31;;;;;;;36.30;14.20;;;;;;;9.66;100.00;100862.06;5108515;29;20032;-71
2023/03/20 04:41:02;;;;;;;44.42;15.43;;;;;;;9.64;100.00;100866.47;5122592;29;20031;-71
2023/03/20 04:43:32;;;;;;;34.08;13.95;;;;;;;9.68;100.00;100862.88;5105884;29;20082;-71
2023/03/20 04:46:03;;;;;;;32.00;13.32;;;;;;;9.67;100.00;100855.94;5122233;29;20054;-72
2023/03/20 04:48:33;;;;;;;34.78;13.63;;;;;;;9.68;100.00;100862.03;5104618;29;20118;-71
2023/03/20 04:51:03;;;;;;;34.78;13.98;;;;;;;9.60;100.00;100856.16;5123049;29;20500;-72
2023/03/20 04:53:34;;;;;;;32.65;12.80;;;;;;;9.59;100.00;100857.03;5107663;29;20105;-71
2023/03/20 04:56:05;;;;;;;34.67;13.10;;;;;;;9.51;100.00;100869.44;5095624;29;20044;-71
2023/03/20 04:58:35;;;;;;;37.40;13.93;;;;;;;9.39;100.00;100860.22;5084978;29;20024;-71
2023/03/20 05:01:05;;;;;;;33.90;13.68;;;;;;;9.31;100.00;100863.91;5123965;29;20074;-71
2023/03/20 05:03:36;;;;;;;31.52;13.20;;;;;;;9.29;100.00;100852.66;5109990;29;20114;-72
2023/03/20 05:09:34;;;;;;;33.95;13.63;;;;;;;9.23;100.00;100844.97;5042484;29;20151;-72
2023/03/20 05:12:05;;;;;;;33.63;13.52;;;;;;;9.18;100.00;100842.47;5099574;29;20451;-71
2023/03/20 05:14:35;;;;;;;36.58;13.43;;;;;;;9.25;100.00;100840.56;5103999;29;20414;-72
2023/03/20 05:17:06;;;;;;;30.45;12.57;;;;;;;9.29;100.00;100837.00;5120537;29;20069;-71
2023/03/20 05:19:37;;;;;;;33.58;13.60;;;;;;;9.27;100.00;100839.66;5123862;29;20035;-72
2023/03/20 05:22:07;;;;;;;40.05;13.68;;;;;;;9.29;100.00;100843.06;5099681;29;20027;-71
2023/03/20 05:24:38;;;;;;;30.90;12.63;;;;;;;9.32;100.00;100842.16;5106645;29;20111;-72
2023/03/20 05:27:08;;;;;;;38.58;13.80;;;;;;;9.26;100.00;100845.75;5103925;29;20307;-72
2023/03/20 05:29:39;;;;;;;33.50;12.63;;;;;;;9.38;100.00;100841.97;5084399;29;20039;-72
2023/03/20 05:32:11;;;;;;;43.90;14.20;;;;;;;9.26;100.00;100845.75;5089107;29;20023;-72
2023/03/20 05:34:41;;;;;;;36.30;12.93;;;;;;;9.35;100.00;100847.28;5104165;29;20106;-72
2023/03/20 05:37:12;;;;;;;33.05;13.00;;;;;;;9.47;100.00;100842.59;5114542;29;20122;-70
2023/03/20 05:39:43;;;;;;;32.85;13.15;;;;;;;9.48;100.00;100853.88;5121717;29;20078;-72
2023/03/20 05:42:13;;;;;;;31.30;13.13;;;;;;;9.44;100.00;100847.88;5106127;29;20027;-71
2023/03/20 05:44:43;;;;;;;28.00;11.98;;;;;;;9.55;100.00;100845.00;5108977;28;20036;-71
2023/03/20 05:47:13;;;;;;;35.08;13.32;;;;;;;9.59;100.00;100852.69;5112984;29;20212;-71
2023/03/20 05:49:44;;;;;;;33.60;12.85;;;;;;;9.55;100.00;100850.19;5105271;29;20031;-71
2023/03/20 05:52:14;;;;;;;30.50;11.63;;;;;;;9.44;100.00;100853.09;5103761;29;20032;-71
2023/03/20 05:54:44;;;;;;;30.08;12.10;;;;;;;9.59;100.00;100846.59;5103538;29;20090;-72
2023/03/20 05:57:16;;;;;;;32.45;11.93;;;;;;;9.52;100.00;100843.31;5108254;29;20144;-71
2023/03/20 05:59:46;;;;;;;32.25;13.23;;;;;;;9.52;100.00;100848.53;5103584;29;20032;-72
2023/03/20 06:02:16;;;;;;;32.25;12.48;;;;;;;9.53;100.00;100852.00;5103149;29;20030;-71
2023/03/20 06:04:47;;;;;;;32.53;11.88;;;;;;;9.55;100.00;100848.47;5103451;29;20026;-72
2023/03/20 06:07:17;;;;;;;29.13;11.73;;;;;;;9.61;100.00;100850.03;5108891;29;20020;-72
2023/03/20 06:09:47;;;;;;;28.58;12.35;;;;;;;9.76;100.00;100852.22;5103313;29;20063;-72
2023/03/20 06:12:18;;;;;;;28.08;11.40;;;;;;;9.77;100.00;100851.31;5103200;29;20544;-72
2023/03/20 06:14:48;;;;;;;26.42;11.65;;;;;;;9.77;100.00;100848.72;5104388;29;20031;-72
2023/03/20 06:17:19;;;;;;;30.27;12.52;;;;;;;9.82;100.00;100850.28;5114021;29;20442;-72
2023/03/20 06:19:49;;;;;;;30.25;11.90;;;;;;;9.79;100.00;100860.00;5119522;29;20063;-72
2023/03/20 06:22:19;;;;;;;27.63;11.40;;;;;;;9.86;100.00;100853.69;5103105;29;20032;-72
2023/03/20 06:24:50;;;;;;;25.00;11.07;;;;;;;9.92;100.00;100856.97;5103159;29;20508;-72
2023/03/20 06:27:21;;;;;;;28.25;11.70;;;;;;;10.00;100.00;100856.75;5104729;29;20115;-72
2023/03/20 06:29:51;;;;;;;30.30;11.18;;;;;;;10.02;100.00;100853.22;5101010;29;20024;-71
2023/03/20 06:32:22;;;;;;;26.58;11.07;;;;;;;10.05;100.00;100866.22;5101508;29;20248;-73
2023/03/20 06:34:52;;;;;;;27.95;12.05;;;;;;;10.08;100.00;100857.41;5101110;29;20098;-73
2023/03/20 06:37:23;;;;;;;29.30;12.00;;;;;;;9.95;100.00;100861.25;5103805;29;20031;-73
2023/03/20 06:39:53;;;;;;;26.35;10.90;;;;;;;10.04;100.00;100866.25;5117712;29;20504;-74
2023/03/20 06:42:23;;;;;;;25.60;11.10;;;;;;;10.08;100.00;100873.09;5118903;29;20405;-74
2023/03/20 06:44:55;;;;;;;25.38;11.02;;;;;;;10.06;100.00;100874.88;5118162;29;20023;-73
2023/03/20 06:47:25;;;;;;;23.23;11.23;;;;;;;10.06;100.00;100880.13;5110583;29;20118;-74
2023/03/20 06:49:56;;;;;;;27.48;11.57;;;;;;;10.01;100.00;100882.84;5115807;29;20098;-74
2023/03/20 06:52:26;;;;;;;23.08;10.70;;;;;;;10.06;100.00;100872.28;5106171;29;20035;-74
2023/03/20 06:54:56;;;;;;;24.92;11.00;;;;;;;10.11;100.00;100880.84;5101980;29;20032;-74
2023/03/20 06:57:27;;;;;;;25.17;11.25;;;;;;;10.10;100.00;100879.13;5103373;29;20561;-73
2023/03/20 06:59:57;;;;;;;26.85;10.98;;;;;;;10.11;100.00;100875.59;5115612;29;20028;-74
2023/03/20 07:02:28;;;;;;;23.77;10.77;;;;;;;10.12;100.00;100874.69;5104429;29;20402;-73
2023/03/20 07:04:58;;;;;;;24.30;11.20;;;;;;;10.29;100.00;100872.44;5089861;29;20031;-74
2023/03/20 07:07:28;;;;;;;23.02;10.40;;;;;;;10.13;100.00;100873.84;5107961;29;20516;-73
2023/03/20 07:09:59;;;;;;;22.65;10.35;;;;;;;10.20;100.00;100881.41;5105767;29;20035;-73
2023/03/20 07:12:29;;;;;;;25.60;10.85;;;;;;;10.35;100.00;100877.53;5114110;29;20028;-74
2023/03/20 07:15:00;;;;;;;25.02;10.93;;;;;;;10.37;100.00;100881.78;5113699;29;20083;-73
2023/03/20 07:17:30;;;;;;;24.80;10.85;;;;;;;10.38;100.00;100880.88;5110556;29;20053;-74
2023/03/20 07:20:00;;;;;;;25.98;10.98;;;;;;;10.44;100.00;100885.06;5103806;29;20067;-74
2023/03/20 07:22:31;;;;;;;26.88;11.32;;;;;;;10.41;100.00;100885.16;5089864;29;20036;-74
2023/03/20 07:25:02;;;;;;;24.45;10.55;;;;;;;10.35;100.00;100893.19;5111821;29;20027;-74
2023/03/20 07:27:32;;;;;;;24.63;10.48;;;;;;;10.32;100.00;100893.28;5106636;29;20027;-74
2023/03/20 07:30:05;;;;;;;26.00;11.07;;;;;;;10.38;100.00;100893.09;5127669;23;20561;-74
2023/03/20 07:32:35;;;;;;;31.02;11.00;;;;;;;10.33;100.00;100908.06;5106278;29;20031;-73
2023/03/20 07:35:06;;;;;;;25.42;10.57;;;;;;;10.35;100.00;100899.25;5106950;29;20031;-72
2023/03/20 07:37:36;;;;;;;27.73;10.82;;;;;;;10.31;100.00;100913.31;5110098;29;20420;-74
2023/03/20 07:40:07;;;;;;;28.13;12.32;;;;;;;10.26;100.00;100912.59;5101872;29;20034;-72
2023/03/20 07:42:38;;;;;;;25.35;10.75;;;;;;;10.22;100.00;100907.50;5108707;29;20488;-72
2023/03/20 07:45:08;;;;;;;27.48;11.48;;;;;;;10.30;100.00;100903.78;5112402;29;20031;-73
2023/03/20 07:47:39;;;;;;;29.48;11.15;;;;;;;10.34;100.00;100909.78;5105575;29;20036;-74
2023/03/20 07:50:10;;;;;;;25.83;10.48;;;;;;;10.39;100.00;100905.25;5101267;29;20028;-73
2023/03/20 07:52:44;;;;;;;28.63;11.02;;;;;;;10.40;100.00;100899.13;5100303;29;20020;-73
2023/03/20 07:55:15;;;;;;;34.92;11.65;;;;;;;10.32;100.00;100916.81;5101068;28;20032;-71
2023/03/20 07:57:48;;;;;;;30.65;11.93;;;;;;;10.41;100.00;100912.16;5100395;29;20028;-74
2023/03/20 08:00:19;;;;;;;32.17;12.40;;;;;;;10.47;100.00;100905.88;5098985;29;20024;-72
2023/03/20 08:02:49;;;;;;;24.92;11.35;;;;;;;10.45;100.00;100905.06;5103353;29;20027;-73
2023/03/20 08:05:19;;;;;;;29.08;11.85;;;;;;;10.47;100.00;100903.25;5108093;29;20030;-72
2023/03/20 08:07:50;;;;;;;31.08;11.75;;;;;;;10.34;100.00;100915.84;5103756;29;20030;-74
2023/03/20 08:10:21;;;;;;;26.90;10.68;;;;;;;10.40;100.00;100913.06;5104813;29;20102;-72
2023/03/20 08:12:51;;;;;;;28.52;12.27;;;;;;;10.42;100.00;100905.16;5112537;29;20031;-73
2023/03/20 08:15:21;;;;;;;27.30;11.25;;;;;;;10.42;100.00;100900.81;5111511;28;20043;-73
2023/03/20 08:17:52;;;;;;;27.60;11.13;;;;;;;10.41;100.00;100890.38;5101322;29;20046;-73
2023/03/20 08:20:22;;;;;;;30.10;11.88;;;;;;;10.38;100.00;100888.72;5100951;29;20042;-72
2023/03/20 08:22:52;;;;;;;28.50;11.98;;;;;;;10.63;100.00;100887.09;5100858;29;20347;-72
2023/03/20 08:25:22;;;;;;;25.95;11.65;;;;;;;10.62;100.00;100893.22;5101550;29;20220;-72
2023/03/20 08:27:53;;;;;;;26.02;11.73;;;;;;;10.65;100.00;100895.72;5100798;29;20316;-72
2023/03/20 08:30:24;;;;;;;26.08;11.30;;;;;;;10.67;100.00;100895.69;5104688;29;20049;-71
2023/03/20 08:32:54;;;;;;;29.50;11.93;;;;;;;10.78;100.00;100901.44;5110836;29;20106;-73
2023/03/20 08:35:25;;;;;;;32.58;12.20;;;;;;;10.81;100.00;100898.72;5100867;28;20102;-71
2023/03/20 08:37:55;;;;;;;31.33;12.70;;;;;;;10.79;100.00;100905.75;5099630;29;20027;-73
2023/03/20 08:40:25;;;;;;;32.70;12.73;;;;;;;10.88;100.00;100908.94;5100648;29;20390;-73
2023/03/20 08:42:56;;;;;;;32.53;12.15;;;;;;;11.02;100.00;100908.53;5098335;29;20309;-72
2023/03/20 08:45:26;;;;;;;32.75;12.55;;;;;;;10.99;100.00;100917.31;5098206;29;20036;-74
2023/03/20 08:47:56;;;;;;;32.85;12.70;;;;;;;10.88;100.00;100921.16;5102475;29;20074;-73
2023/03/20 08:50:27;;;;;;;30.38;12.13;;;;;;;10.87;100.00;100922.06;5099186;29;20039;-73
2023/03/20 08:52:57;;;;;;;34.88;12.75;;;;;;;10.92;100.00;100922.78;5089426;29;20059;-71
2023/03/20 08:55:28;;;;;;;30.70;12.32;;;;;;;10.93;100.00;100920.13;5098156;29;20122;-74
2023/03/20 08:57:58;;;;;;;31.85;13.00;;;;;;;11.07;100.00;100920.56;5098171;29;20127;-70
2023/03/20 09:00:28;;;;;;;28.98;12.05;;;;;;;11.16;100.00;100926.34;5099427;29;20090;-71
2023/03/20 09:02:59;;;;;;;31.45;13.55;;;;;;;11.28;100.00;100918.06;5075053;29;20550;-72
2023/03/20 09:05:29;;;;;;;32.47;14.10;;;;;;;11.65;100.00;100913.34;5099404;29;20031;-73
2023/03/20 09:07:59;;;;;;;33.60;13.82;;;;;;;11.80;100.00;100923.28;5099634;29;20032;-72
2023/03/20 09:10:30;;;;;;;35.38;13.85;;;;;;;11.80;100.00;100918.03;5100516;29;20078;-72
2023/03/20 09:13:00;;;;;;;30.17;13.45;;;;;;;11.71;100.00;100912.28;5099650;29;20019;-72
2023/03/20 09:15:30;;;;;;;29.42;13.77;;;;;;;11.87;100.00;100914.31;5098401;29;20040;-74
2023/03/20 09:18:01;;;;;;;27.42;12.15;;;;;;;11.68;100.00;100920.25;5109879;29;20031;-73
2023/03/20 09:20:31;;;;;;;28.63;12.55;;;;;;;11.68;100.00;100920.25;5109930;28;20087;-73
2023/03/20 09:23:01;;;;;;;33.13;13.10;;;;;;;11.65;100.00;100923.81;5099355;29;20082;-75
2023/03/20 09:25:31;;;;;;;29.90;12.70;;;;;;;11.53;100.00;100925.97;5104247;29;20027;-73
2023/03/20 09:28:02;;;;;;;23.08;11.93;;;;;;;11.51;100.00;100933.00;5106875;29;20078;-73
2023/03/20 09:30:32;;;;;;;26.42;11.85;;;;;;;11.44;100.00;100942.00;5100055;29;20039;-73
2023/03/20 09:33:02;;;;;;;25.52;12.30;;;;;;;11.25;100.00;100933.88;5102676;29;20035;-72
2023/03/20 09:35:33;;;;;;;26.15;12.82;;;;;;;11.30;100.00;100937.19;5099408;29;20119;-72
2023/03/20 09:38:03;;;;;;;26.35;12.02;;;;;;;11.32;100.00;100939.75;5099269;29;20129;-73
2023/03/20 09:40:45;;;;;;;22.25;10.68;;;;;;;11.40;99.98;100937.75;5100092;29;20115;-73
2023/03/20 09:43:41;;;;;;;23.75;11.68;;;;;;;11.50;99.58;100940.03;5098579;29;20027;-69
2023/03/20 09:46:29;;;;;;;23.88;11.85;;;;;;;11.42;99.84;100942.03;5083064;29;20042;-73
2023/03/20 09:49:28;;;;;;;20.85;10.70;;;;;;;11.55;97.97;100945.09;5097385;29;20043;-71
2023/03/20 09:52:06;;;;;;;26.90;12.90;;;;;;;11.57;98.54;100938.94;5096440;29;20034;-74
2023/03/20 09:54:42;;;;;;;25.60;12.57;;;;;;;11.57;98.77;100951.16;5095143;29;20545;-72
2023/03/20 09:57:37;;;;;;;29.65;12.48;;;;;;;11.47;98.42;100949.72;5097051;29;20050;-70
2023/03/20 10:00:16;;;;;;;27.63;11.85;;;;;;;11.42;98.90;100952.50;5096917;29;20024;-72
2023/03/20 10:03:07;;;;;;;29.08;13.82;;;;;;;11.42;98.87;100946.41;5097954;29;20036;-73
2023/03/20 10:05:56;;;;;;;28.60;13.38;;;;;;;11.59;100.00;100947.59;5086941;29;20035;-72
2023/03/20 10:08:33;;;;;;;28.48;13.80;;;;;;;11.46;98.86;100943.63;5106853;29;20398;-74
2023/03/20 10:11:37;;;;;;;32.70;14.40;;;;;;;11.40;99.26;100949.06;5096592;29;20482;-72
2023/03/20 10:14:17;;;;;;;31.13;14.13;;;;;;;11.40;98.25;100954.31;5085666;29;20395;-73
2023/03/20 10:17:15;;;;;;;29.65;13.73;;;;;;;11.29;98.59;100959.03;5099988;29;20053;-72
2023/03/20 10:19:58;;;;;;;29.00;13.77;;;;;;;11.35;97.98;100956.22;5095728;29;20038;-73
2023/03/20 10:22:36;;;;;;;29.25;13.30;;;;;;;11.38;98.91;100955.25;5104759;29;20038;-75
2023/03/20 10:25:21;;;;;;;29.67;13.43;;;;;;;11.38;99.13;100961.34;5101634;29;20086;-75
2023/03/20 10:27:59;;;;;;;32.60;14.27;;;;;;;11.31;100.00;100957.22;5099045;29;20035;-72
2023/03/20 10:30:32;;;;;;;29.80;13.30;;;;;;;11.11;99.72;100957.00;5089980;29;20578;-74
2023/03/20 10:33:35;;;;;;;28.15;12.90;;;;;;;11.15;100.00;100950.78;5091093;29;20564;-72
2023/03/20 10:36:34;;;;;;;31.75;13.93;;;;;;;11.12;100.00;100958.72;5099240;29;20031;-74
2023/03/20 10:39:34;;;;;;;27.02;12.10;;;;;;;11.26;100.00;100951.28;5096064;29;20036;-72
2023/03/20 10:42:13;;;;;;;29.55;13.27;;;;;;;11.03;99.35;100948.56;5081172;29;20047;-72
2023/03/20 10:45:13;;;;;;;28.67;13.30;;;;;;;11.02;100.00;100945.97;5095877;29;20028;-73
2023/03/20 10:47:48;;;;;;;27.27;12.95;;;;;;;11.09;98.87;100952.75;5096805;29;20098;-74
2023/03/20 10:50:34;;;;;;;24.40;11.85;;;;;;;11.14;99.86;100948.22;5098137;29;20027;-71
2023/03/20 10:53:06;;;;;;;25.80;11.75;;;;;;;11.21;99.11;100947.97;5096261;29;20015;-73
2023/03/20 10:55:42;;;;;;;27.55;11.80;;;;;;;11.23;99.99;100947.91;5096728;29;20058;-75
2023/03/20 10:58:22;;;;;;;28.70;12.98;;;;;;;11.27;99.54;100945.13;5096950;29;20027;-73
2023/03/20 11:00:55;;;;;;;27.58;12.90;;;;;;;11.22;98.83;100944.44;5097643;29;20297;-73
2023/03/20 11:03:29;;;;;;;24.08;11.57;;;;;;;11.28;99.33;100939.00;5104729;29;20026;-72
2023/03/20 11:06:04;;;;;;;29.10;14.35;;;;;;;11.09;98.98;100937.03;5105916;29;20593;-71
2023/03/20 11:08:40;;;;;;;27.17;12.50;;;;;;;11.33;98.49;100937.13;5093820;29;20080;-74
2023/03/20 11:11:11;;;;;;;24.85;12.10;;;;;;;11.38;99.73;100934.31;5098206;29;20371;-72
2023/03/20 11:13:43;;;;;;;27.08;13.38;;;;;;;11.58;98.48;100935.41;5096579;29;20039;-72
2023/03/20 11:16:20;;;;;;;26.30;13.07;;;;;;;11.65;97.60;100944.75;5098187;29;20043;-73
2023/03/20 11:18:52;;;;;;;29.02;13.27;;;;;;;11.84;97.97;100929.28;5109905;29;20493;-72
2023/03/20 11:21:27;;;;;;;28.98;14.40;;;;;;;11.71;97.25;100927.97;5104735;29;20031;-73
2023/03/20 11:23:57;;;;;;;29.17;14.48;;;;;;;11.80;96.85;100928.50;5097108;29;20107;-73
2023/03/20 11:26:40;;;;;;;27.85;13.70;;;;;;;11.68;96.34;100921.09;5100317;29;20122;-72
2023/03/20 11:29:26;;;;;;;27.60;13.75;;;;;;;11.77;96.45;100925.16;5095361;29;20210;-75
2023/03/20 11:32:05;;;;;;;28.03;13.80;;;;;;;11.63;96.78;100915.16;5108058;29;20122;-72
2023/03/20 11:34:37;;;;;;;32.50;15.32;;;;;;;11.89;97.11;100912.50;5105049;29;20031;-74
2023/03/20 11:37:35;;;;;;;30.13;14.88;;;;;;;11.86;98.42;100902.13;5099979;29;20032;-73
2023/03/20 11:40:11;;;;;;;33.25;15.52;;;;;;;11.98;99.24;100911.31;5095231;29;20520;-73
2023/03/20 11:42:59;;;;;;;26.75;13.82;;;;;;;12.13;95.04;100906.34;5096333;29;20040;-75
2023/03/20 11:45:37;;;;;;;20.92;11.32;;;;;;;12.34;91.27;100895.09;5101205;29;20331;-74
2023/03/20 11:48:22;;;;;;;22.30;11.95;;;;;;;12.70;90.39;100896.31;5099308;29;20027;-72